Crowley Lake, California
Current Conditions -  °F | °C
As of 10:15 PM on Wednesday 22 Oct 2014 (Local Time) from KMMH Reporting Station
Clear Clear  
Wind Chill: 32°   Ceiling: Unl
Heat Index: 36°   Visibility: 10mi
Dew Point: 14°   Wind: 5mph
Humidity: 41%   Direction: 10°N
Pressure: 30.27"   Gusts: NA
Location:  37.6599°N, 118.912°W
Report Text: KMMH 230515Z AUTO 01004KT 10SM CLR 02/M10 A3027 RMK AO1
Loading
Personal Weather Stations






























Interactive Weather Map
Tropical Storm Tracking
New forecast layout! Learn more

10-Day Weather Forecast

Advertisements
Track Severe Weather on mobile